Time;durP1;ratioP1;P1;durP2;ratioP2;P2;SDS_P1;SDS_P2;PMS_P1;PMS_P2;Temp;Humidity;BMP_temperature;BMP_pressure;BME280_temperature;BME280_humidity;BME280_pressure;Samples;Min_cycle;Max_cycle;Signal;HPM_P1;HPM_P2
2022/09/12 00:01:31;;;;;;;0.10;0.00;;;;;;;12.62;100.00;101548.69;5220552;28;20509;-68
2022/09/12 00:04:02;;;;;;;0.00;0.00;;;;;;;12.62;100.00;101545.13;5212025;28;20491;-68
2022/09/12 00:06:35;;;;;;;0.13;0.00;;;;;;;12.62;100.00;101555.84;5221919;28;20125;-69
2022/09/12 00:09:09;;;;;;;0.15;0.00;;;;;;;12.59;100.00;101556.91;5218152;28;20036;-68
2022/09/12 00:11:44;;;;;;;0.00;0.00;;;;;;;12.57;100.00;101552.66;5225313;28;20030;-68
2022/09/12 00:14:17;;;;;;;0.00;0.00;;;;;;;12.55;100.00;101547.41;5213846;28;20095;-68
2022/09/12 00:16:48;;;;;;;0.00;0.00;;;;;;;12.52;100.00;101536.91;5218625;28;20043;-68
2022/09/12 00:19:19;;;;;;;0.20;0.00;;;;;;;12.51;100.00;101532.56;5213843;28;20041;-68
2022/09/12 00:21:51;;;;;;;0.10;0.00;;;;;;;12.49;100.00;101529.13;5227027;28;20079;-68
2022/09/12 00:24:22;;;;;;;0.00;0.00;;;;;;;12.46;100.00;101530.19;5222669;28;20076;-70
2022/09/12 00:26:53;;;;;;;0.00;0.00;;;;;;;12.45;100.00;101530.34;5228065;28;20479;-68
2022/09/12 00:29:25;;;;;;;0.00;0.00;;;;;;;12.43;100.00;101529.59;5228346;28;20847;-68
2022/09/12 00:31:56;;;;;;;0.15;0.00;;;;;;;12.42;100.00;101530.53;5232415;28;20414;-68
2022/09/12 00:34:27;;;;;;;0.10;0.00;;;;;;;12.40;100.00;101529.81;5233889;28;20078;-68
2022/09/12 00:36:59;;;;;;;0.13;0.00;;;;;;;12.39;100.00;101525.41;5230193;28;20039;-68
2022/09/12 00:39:30;;;;;;;0.20;0.05;;;;;;;12.34;100.00;101517.72;5231179;28;20033;-68
2022/09/12 00:42:01;;;;;;;0.28;0.00;;;;;;;12.32;100.00;101520.50;5231437;28;20062;-69
2022/09/12 00:44:35;;;;;;;0.10;0.00;;;;;;;12.32;100.00;101525.00;5232472;28;20049;-68
2022/09/12 00:47:21;;;;;;;0.00;0.00;;;;;;;12.32;100.00;101519.66;5233818;28;20038;-68
2022/09/12 00:50:07;;;;;;;0.38;0.00;;;;;;;12.29;100.00;101523.44;5226682;28;20043;-68
2022/09/12 00:52:56;;;;;;;0.10;0.00;;;;;;;12.27;100.00;101519.13;5227527;28;20117;-68
2022/09/12 00:55:33;;;;;;;0.05;0.00;;;;;;;12.25;100.00;101524.59;5222051;28;20109;-68
2022/09/12 00:58:13;;;;;;;0.20;0.00;;;;;;;12.25;100.00;101523.75;5220433;28;20063;-68
2022/09/12 01:00:46;;;;;;;0.00;0.00;;;;;;;12.19;100.00;101516.16;5221365;28;20044;-68
2022/09/12 01:03:21;;;;;;;0.00;0.00;;;;;;;12.18;100.00;101509.09;5218570;28;20141;-68
2022/09/12 01:06:02;;;;;;;0.08;0.00;;;;;;;12.16;100.00;101507.41;5223351;28;20034;-68
2022/09/12 01:08:36;;;;;;;0.03;0.00;;;;;;;12.16;100.00;101506.56;5220363;28;20037;-68
2022/09/12 01:11:09;;;;;;;0.00;0.00;;;;;;;12.15;100.00;101503.00;5216652;28;20033;-68
2022/09/12 01:13:42;;;;;;;0.00;0.00;;;;;;;12.12;100.00;101502.41;5219184;28;20111;-68
2022/09/12 01:16:14;;;;;;;0.10;0.00;;;;;;;12.06;100.00;101492.13;5223423;28;20052;-69
2022/09/12 01:19:19;;;;;;;0.00;0.00;;;;;;;12.04;100.00;101492.25;5230369;28;20478;-68
2022/09/12 01:22:29;;;;;;;0.17;0.00;;;;;;;12.03;100.00;101497.72;5218560;28;20504;-68
2022/09/12 01:25:13;;;;;;;0.20;0.00;;;;;;;12.03;100.00;101495.03;5225070;28;20056;-68
2022/09/12 01:28:00;;;;;;;0.05;0.00;;;;;;;12.02;100.00;101490.63;5223898;28;20038;-68
2022/09/12 01:30:43;;;;;;;0.00;0.00;;;;;;;12.01;100.00;101488.94;5213620;28;20270;-68
2022/09/12 01:33:46;;;;;;;0.00;0.00;;;;;;;12.02;100.00;101485.28;5217887;28;20075;-68
2022/09/12 01:36:24;;;;;;;0.10;0.00;;;;;;;11.97;100.00;101493.66;5213439;28;20497;-68
2022/09/12 01:39:01;;;;;;;0.28;0.10;;;;;;;11.93;100.00;101487.66;5224196;28;20043;-68
2022/09/12 01:41:47;;;;;;;0.00;0.00;;;;;;;11.88;100.00;101478.25;5221619;28;20033;-68
2022/09/12 01:44:55;;;;;;;0.55;0.10;;;;;;;11.84;100.00;101485.63;5233109;28;20056;-68
2022/09/12 01:47:35;;;;;;;0.10;0.00;;;;;;;11.82;100.00;101479.53;5220415;28;20049;-68
2022/09/12 01:50:15;;;;;;;0.00;0.00;;;;;;;11.82;100.00;101484.88;5221627;28;20136;-68
2022/09/12 01:53:15;;;;;;;0.30;0.00;;;;;;;11.82;100.00;101487.56;5220444;28;20038;-68
2022/09/12 01:56:11;;;;;;;0.10;0.00;;;;;;;11.79;100.00;101482.41;5231466;28;20044;-68
2022/09/12 01:59:00;;;;;;;0.03;0.00;;;;;;;11.76;100.00;101470.13;5228671;28;20029;-68
2022/09/12 02:01:35;;;;;;;0.17;0.08;;;;;;;11.74;100.00;101466.72;5223118;28;20033;-68
2022/09/12 02:04:13;;;;;;;0.08;0.00;;;;;;;11.72;100.00;101462.44;5225853;28;20037;-68
2022/09/12 02:06:54;;;;;;;0.00;0.00;;;;;;;11.71;100.00;101460.72;5228404;28;20112;-68
2022/09/12 02:09:36;;;;;;;0.00;0.00;;;;;;;11.72;100.00;101451.75;5226036;28;20378;-68
2022/09/12 02:12:10;;;;;;;0.00;0.00;;;;;;;11.69;100.00;101451.97;5227428;28;20525;-68
2022/09/12 02:14:45;;;;;;;;;;;;;;;11.73;100.00;101454.28;5234311;28;20029;-68
2022/09/12 02:17:23;;;;;;;0.05;0.00;;;;;;;11.69;100.00;101444.78;5224667;28;19928;-68
2022/09/12 02:20:01;;;;;;;0.10;0.00;;;;;;;11.68;100.00;101451.13;5232469;28;20029;-68
2022/09/12 02:22:36;;;;;;;0.28;0.10;;;;;;;11.69;100.00;101454.63;5220813;28;20026;-68
2022/09/12 02:25:11;;;;;;;0.10;0.00;;;;;;;11.71;100.00;101450.88;5224287;28;20045;-68
2022/09/12 02:27:53;;;;;;;0.13;0.03;;;;;;;11.69;100.00;101454.63;5219743;28;20029;-68
2022/09/12 02:30:30;;;;;;;0.00;0.00;;;;;;;11.67;100.00;101452.06;5227801;28;20113;-68
2022/09/12 02:33:08;;;;;;;0.05;0.00;;;;;;;11.65;100.00;101461.16;5229731;28;20029;-68
2022/09/12 02:35:51;;;;;;;0.30;0.00;;;;;;;11.64;100.00;101460.31;5231731;28;20033;-68
2022/09/12 02:38:36;;;;;;;0.00;0.00;;;;;;;11.62;100.00;101461.38;5221656;28;20083;-68
2022/09/12 02:41:07;;;;;;;;;;;;;;;11.60;100.00;101458.81;5221047;28;20031;-68
2022/09/12 02:43:39;;;;;;;0.25;0.10;;;;;;;11.57;100.00;101451.88;5216692;28;19944;-68
2022/09/12 02:46:18;;;;;;;0.10;0.00;;;;;;;11.54;100.00;101449.44;5215789;28;20158;-68
2022/09/12 02:48:50;;;;;;;0.00;0.00;;;;;;;11.54;100.00;101444.09;5218608;28;20060;-68
2022/09/12 02:51:21;;;;;;;0.00;0.00;;;;;;;11.52;100.00;101431.78;5218047;28;20029;-68
2022/09/12 02:53:53;;;;;;;0.10;0.00;;;;;;;11.49;100.00;101440.88;5218799;28;20033;-68
2022/09/12 02:56:29;;;;;;;0.03;0.00;;;;;;;11.46;100.00;101440.25;5221185;28;20041;-68
2022/09/12 02:59:05;;;;;;;0.10;0.00;;;;;;;11.45;100.00;101434.03;5220739;28;20035;-68
2022/09/12 03:02:00;;;;;;;0.00;0.00;;;;;;;11.44;100.00;101429.66;5225265;28;20033;-68
2022/09/12 03:04:39;;;;;;;0.13;0.03;;;;;;;11.43;100.00;101430.63;5215845;28;20037;-68
2022/09/12 03:07:29;;;;;;;0.00;0.00;;;;;;;11.41;100.00;101423.66;5214723;28;21308;-68
2022/09/12 03:10:19;;;;;;;0.43;0.00;;;;;;;11.42;100.00;101420.88;5217806;28;20031;-68
2022/09/12 03:13:01;;;;;;;0.05;0.00;;;;;;;11.44;100.00;101426.13;5222900;28;20541;-68
2022/09/12 03:16:10;;;;;;;0.20;0.00;;;;;;;11.47;100.00;101432.13;5221278;28;20419;-68
2022/09/12 03:18:56;;;;;;;0.20;0.00;;;;;;;11.49;100.00;101424.00;5224610;28;20442;-68
2022/09/12 03:21:56;;;;;;;0.10;0.00;;;;;;;11.51;100.00;101424.75;5220821;28;20159;-67
2022/09/12 03:24:36;;;;;;;0.10;0.00;;;;;;;11.51;100.00;101424.75;5216301;28;20082;-68
2022/09/12 03:27:32;;;;;;;0.30;0.00;;;;;;;11.48;100.00;101423.13;5218136;28;20041;-68
2022/09/12 03:30:05;;;;;;;0.00;0.00;;;;;;;11.46;100.00;101425.06;5227098;28;20044;-68
2022/09/12 03:32:45;;;;;;;0.43;0.00;;;;;;;11.46;100.00;101425.06;5220423;28;20030;-68
2022/09/12 03:35:18;;;;;;;0.17;0.00;;;;;;;11.47;100.00;101423.25;5218956;28;20201;-68
2022/09/12 03:37:51;;;;;;;0.20;0.00;;;;;;;11.45;100.00;101410.00;5215107;28;20029;-68
2022/09/12 03:40:22;;;;;;;0.00;0.00;;;;;;;11.46;100.00;101413.50;5215588;28;20022;-68
2022/09/12 03:42:53;;;;;;;0.08;0.00;;;;;;;11.45;100.00;101411.78;5217352;28;20037;-68
2022/09/12 03:45:24;;;;;;;0.20;0.00;;;;;;;11.45;100.00;101414.47;5219995;28;20058;-68
2022/09/12 03:47:57;;;;;;;0.00;0.00;;;;;;;11.46;100.00;101413.50;5219612;28;20030;-68
2022/09/12 03:50:28;;;;;;;0.10;0.00;;;;;;;11.45;100.00;101412.66;5222965;28;20076;-68
2022/09/12 03:53:00;;;;;;;0.10;0.00;;;;;;;11.42;100.00;101407.53;5216662;28;20030;-68
2022/09/12 03:55:31;;;;;;;0.40;0.10;;;;;;;11.41;100.00;101400.50;5218958;28;20025;-68
2022/09/12 03:58:02;;;;;;;0.00;0.00;;;;;;;11.40;100.00;101406.78;5225428;28;20127;-68
2022/09/12 04:00:34;;;;;;;0.08;0.00;;;;;;;11.40;100.00;101398.78;5224194;28;20025;-68
2022/09/12 04:03:05;;;;;;;0.15;0.00;;;;;;;11.38;100.00;101396.19;5227576;28;20059;-68
2022/09/12 04:05:36;;;;;;;0.00;0.00;;;;;;;11.36;100.00;101394.63;5222544;28;20033;-68
2022/09/12 04:08:07;;;;;;;0.15;0.00;;;;;;;11.35;100.00;101392.91;5223582;28;20119;-68
2022/09/12 04:10:39;;;;;;;0.00;0.00;;;;;;;11.36;100.00;101390.13;5229567;28;20086;-68
2022/09/12 04:13:10;;;;;;;0.28;0.00;;;;;;;11.37;100.00;101393.63;5225355;28;20044;-68
2022/09/12 04:15:42;;;;;;;0.00;0.00;;;;;;;11.35;100.00;101388.44;5219555;28;20032;-68
2022/09/12 04:18:13;;;;;;;0.00;0.00;;;;;;;11.39;100.00;101386.41;5220547;28;20589;-68
2022/09/12 04:20:44;;;;;;;0.00;0.00;;;;;;;11.39;100.00;101383.72;5217907;28;20033;-68
2022/09/12 04:23:15;;;;;;;0.43;0.00;;;;;;;11.38;100.00;101380.19;5210965;28;20060;-68
2022/09/12 04:25:55;;;;;;;0.05;0.00;;;;;;;11.42;100.00;101385.31;5218215;28;20044;-68
2022/09/12 04:28:31;;;;;;;0.30;0.10;;;;;;;11.45;100.00;101388.63;5223201;28;20378;-68
2022/09/12 04:31:06;;;;;;;0.17;0.00;;;;;;;11.49;100.00;101386.59;5219763;28;20364;-68
2022/09/12 04:33:38;;;;;;;0.00;0.00;;;;;;;11.52;100.00;101378.34;5227394;28;20407;-68
2022/09/12 04:36:14;;;;;;;0.05;0.00;;;;;;;11.57;100.00;101386.88;5222662;28;20029;-68
2022/09/12 04:38:46;;;;;;;0.38;0.08;;;;;;;11.60;100.00;101386.63;5224096;28;20090;-68
2022/09/12 04:41:21;;;;;;;0.00;0.00;;;;;;;11.64;100.00;101382.81;5221139;28;20017;-69
2022/09/12 04:43:57;;;;;;;0.10;0.00;;;;;;;11.66;100.00;101372.84;5233500;28;20159;-68
2022/09/12 04:46:31;;;;;;;0.00;0.00;;;;;;;11.72;100.00;101376.91;5222534;28;20099;-68
2022/09/12 04:49:03;;;;;;;;;;;;;;;11.75;100.00;101372.19;5217027;28;20037;-68
2022/09/12 04:51:36;;;;;;;0.00;0.00;;;;;;;11.74;100.00;101375.81;5213683;28;19956;-68
2022/09/12 04:54:17;;;;;;;0.30;0.08;;;;;;;11.77;100.00;101372.94;5222904;28;20533;-68
2022/09/12 04:56:50;;;;;;;0.10;0.00;;;;;;;11.77;100.00;101372.94;5224709;28;20501;-68
2022/09/12 04:59:22;;;;;;;0.10;0.00;;;;;;;11.80;100.00;101379.03;5226036;28;20771;-68
2022/09/12 05:01:53;;;;;;;0.38;0.10;;;;;;;11.79;100.00;101370.13;5220765;28;20044;-69
2022/09/12 05:04:24;;;;;;;0.20;0.00;;;;;;;11.78;100.00;101371.94;5222074;28;20080;-69
2022/09/12 05:06:56;;;;;;;3.85;1.15;;;;;;;11.75;100.00;101368.66;5224267;28;20151;-69
2022/09/12 05:09:28;;;;;;;6.00;2.00;;;;;;;11.73;100.00;101371.41;5216645;28;20750;-67
2022/09/12 05:11:59;;;;;;;4.57;2.08;;;;;;;11.73;100.00;101374.09;5223534;28;20751;-68
2022/09/12 05:14:32;;;;;;;8.27;3.10;;;;;;;11.72;100.00;101385.78;5224152;28;20033;-68
2022/09/12 05:17:04;;;;;;;9.15;3.95;;;;;;;11.71;100.00;101385.88;5221896;28;20091;-67
2022/09/12 05:19:36;;;;;;;12.23;4.47;;;;;;;11.72;100.00;101376.91;5227538;28;20041;-67
2022/09/12 05:22:08;;;;;;;12.75;5.40;;;;;;;11.72;100.00;101380.44;5224306;28;20445;-68
2022/09/12 05:24:42;;;;;;;14.50;6.28;;;;;;;11.73;100.00;101368.75;5215950;28;20065;-67
2022/09/12 05:27:13;;;;;;;13.18;5.75;;;;;;;11.73;100.00;101382.13;5217040;28;20049;-69
2022/09/12 05:29:45;;;;;;;11.68;5.50;;;;;;;11.74;100.00;101374.97;5226887;28;20492;-67
2022/09/12 05:32:16;;;;;;;16.80;6.13;;;;;;;11.75;100.00;101376.66;5226500;28;20043;-67
2022/09/12 05:34:48;;;;;;;17.60;6.47;;;;;;;11.76;100.00;101373.88;5221557;28;20348;-68
2022/09/12 05:37:20;;;;;;;19.58;7.75;;;;;;;11.75;100.00;101372.19;5228027;28;20733;-67
2022/09/12 05:39:51;;;;;;;20.92;7.97;;;;;;;11.78;100.00;101371.09;5232245;28;20033;-68
2022/09/12 05:42:22;;;;;;;21.63;8.35;;;;;;;11.81;100.00;101378.88;5234805;28;20419;-67
2022/09/12 05:44:54;;;;;;;26.60;8.98;;;;;;;11.84;100.00;101375.16;5231688;28;20045;-67
2022/09/12 05:47:25;;;;;;;20.38;8.32;;;;;;;11.85;100.00;101368.81;5235306;28;20037;-67
2022/09/12 05:49:58;;;;;;;23.60;8.55;;;;;;;11.86;100.00;101382.09;5229413;28;20394;-69
2022/09/12 05:52:31;;;;;;;21.58;8.63;;;;;;;11.89;100.00;101389.91;5226616;28;20311;-68
2022/09/12 05:55:03;;;;;;;25.27;9.23;;;;;;;11.91;100.00;101389.81;5227540;28;20032;-68
2022/09/12 05:57:35;;;;;;;25.02;8.60;;;;;;;11.95;100.00;101388.63;5229347;28;20056;-68
2022/09/12 06:00:08;;;;;;;20.10;8.75;;;;;;;11.95;100.00;101389.47;5229239;28;20020;-68
2022/09/12 06:02:40;;;;;;;25.95;10.13;;;;;;;11.98;100.00;101400.91;5233172;28;20167;-68
2022/09/12 06:05:11;;;;;;;31.13;11.60;;;;;;;12.00;100.00;101393.63;5230747;28;20025;-68
2022/09/12 06:07:45;;;;;;;29.65;11.15;;;;;;;12.03;100.00;101404.09;5226838;28;20025;-68
2022/09/12 06:10:16;;;;;;;30.83;12.05;;;;;;;12.05;100.00;101397.66;5227462;28;20927;-68
2022/09/12 06:12:48;;;;;;;32.58;12.27;;;;;;;12.09;100.00;101400.97;5227001;28;20026;-68
2022/09/12 06:15:19;;;;;;;30.60;11.60;;;;;;;12.10;100.00;101395.50;5235323;28;20443;-68
2022/09/12 06:17:51;;;;;;;32.88;11.98;;;;;;;12.15;100.00;101396.00;5224058;28;20045;-68
2022/09/12 06:20:22;;;;;;;31.52;11.45;;;;;;;12.20;100.00;101392.16;5231609;28;20052;-68
2022/09/12 06:22:53;;;;;;;34.45;12.57;;;;;;;12.22;100.00;101388.38;5223488;28;20751;-68
2022/09/12 06:25:25;;;;;;;33.47;12.23;;;;;;;12.23;100.00;101390.06;5219709;28;20452;-68
2022/09/12 06:27:56;;;;;;;33.92;13.18;;;;;;;12.25;100.00;101392.66;5215491;28;20497;-68
2022/09/12 06:30:27;;;;;;;38.35;12.73;;;;;;;12.26;100.00;101392.53;5217259;28;20033;-70
2022/09/12 06:32:59;;;;;;;28.42;11.60;;;;;;;12.30;100.00;101379.78;5221540;28;20846;-68
2022/09/12 06:35:34;;;;;;;29.33;12.15;;;;;;;12.35;100.00;101382.97;5227134;28;20479;-68
2022/09/12 06:38:05;;;;;;;31.25;13.02;;;;;;;12.39;100.00;101388.91;5224875;28;20039;-68
2022/09/12 06:40:43;;;;;;;27.65;11.27;;;;;;;12.45;100.00;101392.00;5225441;28;20034;-68
2022/09/12 06:43:14;;;;;;;32.70;13.10;;;;;;;12.46;100.00;101390.19;5218106;28;20384;-68
2022/09/12 06:45:49;;;;;;;42.10;17.08;;;;;;;12.47;100.00;101397.25;5218852;28;20044;-68
2022/09/12 06:48:21;;;;;;;45.40;18.35;;;;;;;12.50;100.00;101391.66;5218557;28;20463;-68
2022/09/12 06:50:57;;;;;;;54.00;19.00;;;;;;;12.53;100.00;101389.59;5220135;28;20025;-68
2022/09/12 06:53:32;;;;;;;49.80;17.67;;;;;;;12.54;100.00;101390.44;5220995;28;20080;-68
2022/09/12 06:56:05;;;;;;;;;;;;;;;12.69;100.00;101391.09;5217166;28;20038;-69
2022/09/12 06:58:37;;;;;;;51.60;18.80;;;;;;;12.60;100.00;101390.00;5218219;28;20048;-68
2022/09/12 07:01:11;;;;;;;55.63;20.58;;;;;;;12.66;100.00;101388.66;5220201;28;20057;-68
2022/09/12 07:03:47;;;;;;;49.17;19.83;;;;;;;12.66;100.00;101386.84;5219717;28;20030;-68
2022/09/12 07:06:20;;;;;;;51.08;19.77;;;;;;;12.73;100.00;101396.13;5219071;28;20500;-68
2022/09/12 07:08:52;;;;;;;54.72;22.55;;;;;;;12.75;100.00;101382.59;5229177;28;20256;-68
2022/09/12 07:11:26;;;;;;;57.92;21.05;;;;;;;12.79;100.00;101388.56;5218221;28;20042;-68
2022/09/12 07:13:59;;;;;;;59.83;22.70;;;;;;;12.81;100.00;101398.19;5219435;28;20064;-66
2022/09/12 07:16:31;;;;;;;63.13;24.02;;;;;;;12.82;100.00;101391.00;5217397;28;20095;-66
2022/09/12 07:19:05;;;;;;;61.75;23.75;;;;;;;12.89;100.00;101398.47;5219369;28;20390;-67
2022/09/12 07:21:38;;;;;;;65.35;24.65;;;;;;;12.92;100.00;101390.19;5223271;28;20026;-67
2022/09/12 07:24:10;;;;;;;67.88;27.77;;;;;;;12.96;100.00;101388.09;5228641;28;20026;-67
2022/09/12 07:26:42;;;;;;;71.68;29.42;;;;;;;12.95;100.00;101383.72;5228293;28;20510;-67
2022/09/12 07:29:15;;;;;;;77.38;30.05;;;;;;;13.01;100.00;101385.09;5229696;28;20071;-67
2022/09/12 07:31:46;;;;;;;74.75;29.58;;;;;;;13.01;100.00;101374.38;5227501;28;20025;-67
2022/09/12 07:34:18;;;;;;;74.63;31.77;;;;;;;13.07;100.00;101380.09;5232283;28;20036;-67
2022/09/12 07:36:49;;;;;;;80.57;35.10;;;;;;;13.12;100.00;101382.41;5231657;28;20433;-67
2022/09/12 07:39:20;;;;;;;80.50;35.45;;;;;;;13.14;100.00;101381.31;5222974;28;20029;-67
2022/09/12 07:41:52;;;;;;;76.32;35.22;;;;;;;13.20;100.00;101384.50;5217497;28;20079;-67
2022/09/12 07:44:24;;;;;;;71.93;34.60;;;;;;;13.24;100.00;101391.31;5222330;28;20053;-67
2022/09/12 07:46:55;;;;;;;73.80;33.97;;;;;;;13.30;100.00;101388.16;5221868;28;20021;-67
2022/09/12 07:49:26;;;;;;;76.97;37.30;;;;;;;13.36;100.00;101390.34;5219801;28;20034;-67
2022/09/12 07:51:57;;;;;;;80.07;37.50;;;;;;;13.41;100.00;101390.84;5225409;28;20034;-67
2022/09/12 07:54:30;;;;;;;78.15;36.60;;;;;;;13.52;100.00;101392.69;5230438;28;20030;-67
2022/09/12 07:57:02;;;;;;;83.68;39.72;;;;;;;13.63;100.00;101389.13;5223471;28;20106;-67
2022/09/12 07:59:33;;;;;;;90.75;40.58;;;;;;;13.62;100.00;101403.53;5221481;28;20037;-66
2022/09/12 08:02:05;;;;;;;82.78;39.35;;;;;;;13.64;100.00;101398.88;5229949;28;20021;-67
2022/09/12 08:04:36;;;;;;;83.68;40.28;;;;;;;13.77;100.00;101380.81;5229447;28;20029;-67
2022/09/12 08:07:08;;;;;;;92.47;42.42;;;;;;;13.78;100.00;101379.00;5227210;28;20291;-67
2022/09/12 08:09:39;;;;;;;75.43;39.22;;;;;;;13.96;100.00;101373.94;5231432;28;20029;-67
2022/09/12 08:12:10;;;;;;;80.13;39.55;;;;;;;13.98;100.00;101390.75;5228790;28;20112;-67
2022/09/12 08:14:42;;;;;;;79.22;39.13;;;;;;;14.03;100.00;101383.19;5228054;28;20037;-67
2022/09/12 08:17:13;;;;;;;74.97;39.97;;;;;;;14.07;100.00;101385.47;5232100;28;20539;-68
2022/09/12 08:19:45;;;;;;;78.60;40.95;;;;;;;14.24;100.00;101392.13;5229867;28;20025;-67
2022/09/12 08:22:17;;;;;;;73.05;40.30;;;;;;;14.25;100.00;101383.13;5223070;28;20024;-67
2022/09/12 08:24:49;;;;;;;70.10;40.42;;;;;;;14.29;100.00;101394.44;5220531;28;20032;-67
2022/09/12 08:27:20;;;;;;;67.03;38.97;;;;;;;14.45;100.00;101396.69;5228839;28;20029;-67
2022/09/12 08:29:52;;;;;;;65.50;39.58;;;;;;;14.56;100.00;101393.97;5218328;28;20418;-67
2022/09/12 08:32:23;;;;;;;64.07;40.05;;;;;;;14.55;100.00;101402.97;5224782;28;20321;-68
2022/09/12 08:34:55;;;;;;;66.70;39.10;;;;;;;14.68;100.00;101402.84;5218458;28;20037;-67
2022/09/12 08:37:30;;;;;;;61.60;38.17;;;;;;;14.74;100.00;101407.69;5221920;28;20048;-68
2022/09/12 08:40:01;;;;;;;64.82;39.88;;;;;;;14.78;100.00;101402.91;5220496;28;20030;-68
2022/09/12 08:42:44;;;;;;;61.92;38.55;;;;;;;14.95;100.00;101399.63;5222114;28;20029;-68
2022/09/12 08:45:26;;;;;;;56.83;38.47;;;;;;;15.11;100.00;101407.22;5223798;28;20047;-68
2022/09/12 08:48:00;;;;;;;61.28;38.67;;;;;;;15.06;100.00;101409.44;5225745;28;20535;-68
2022/09/12 08:50:31;;;;;;;62.00;39.03;;;;;;;15.23;100.00;101403.44;5231560;28;20025;-68
2022/09/12 08:53:15;;;;;;;63.30;40.53;;;;;;;15.25;100.00;101404.16;5232884;28;20032;-68
2022/09/12 08:55:54;;;;;;;64.47;38.78;;;;;;;15.39;100.00;101397.56;5230561;28;20059;-68
2022/09/12 08:58:27;;;;;;;57.08;36.03;;;;;;;15.44;100.00;101397.19;5224052;28;20030;-68
2022/09/12 09:01:26;;;;;;;54.95;36.00;;;;;;;15.66;100.00;101394.25;5228895;28;20080;-68
2022/09/12 09:04:23;;;;;;;52.42;34.22;;;;;;;15.78;100.00;101397.75;5226724;28;20025;-68
2022/09/12 09:07:05;;;;;;;50.15;33.72;;;;;;;15.82;100.00;101396.47;5229677;28;20062;-68
2022/09/12 09:10:05;;;;;;;48.13;31.65;;;;;;;15.88;100.00;101393.22;5219274;28;20037;-68
2022/09/12 09:13:00;;;;;;;45.60;30.33;;;;;;;15.96;100.00;101389.84;5219839;28;20038;-68
2022/09/12 09:15:44;;;;;;;43.22;28.52;;;;;;;15.85;100.00;101387.28;5221014;28;20147;-68
2022/09/12 09:18:30;;;;;;;39.22;26.65;;;;;;;16.15;100.00;101375.56;5229122;28;20057;-68
2022/09/12 09:21:12;;;;;;;36.70;24.08;;;;;;;16.02;100.00;101374.97;5225226;28;20025;-69
2022/09/12 09:23:48;;;;;;;32.88;23.25;;;;;;;16.13;100.00;101380.22;5228165;28;20078;-68
2022/09/12 09:26:28;;;;;;;28.73;21.58;;;;;;;16.19;100.00;101381.50;5226760;28;20033;-68
2022/09/12 09:29:09;;;;;;;27.02;20.02;;;;;;;16.24;100.00;101379.22;5225335;28;20071;-68
2022/09/12 09:31:42;;;;;;;27.88;19.30;;;;;;;16.39;100.00;101380.50;5223795;28;20021;-68
2022/09/12 09:34:18;;;;;;;27.80;20.55;;;;;;;16.49;100.00;101375.09;5230908;28;20570;-68
2022/09/12 09:37:05;;;;;;;26.65;18.98;;;;;;;16.43;100.00;101370.31;5230117;28;20068;-68
2022/09/12 09:40:00;;;;;;;26.85;18.45;;;;;;;16.64;100.00;101367.44;5224527;28;21345;-67
2022/09/12 09:42:40;;;;;;;24.00;18.20;;;;;;;16.66;100.00;101371.72;5224756;28;20036;-67
2022/09/12 09:45:18;;;;;;;19.65;16.60;;;;;;;16.74;100.00;101375.50;5228300;28;21003;-67
2022/09/12 09:47:58;;;;;;;18.20;14.38;;;;;;;16.90;100.00;101365.03;5233220;28;20030;-67
2022/09/12 09:50:29;;;;;;;20.13;14.32;;;;;;;16.87;100.00;101359.91;5227928;28;20427;-67
2022/09/12 09:53:02;;;;;;;15.95;12.90;;;;;;;17.03;100.00;101365.53;5230119;28;20067;-67
2022/09/12 09:55:39;;;;;;;16.50;12.55;;;;;;;17.06;100.00;101359.00;5219462;28;20164;-67
2022/09/12 09:58:27;;;;;;;17.38;13.27;;;;;;;17.22;100.00;101351.16;5223344;28;20441;-67
2022/09/12 10:01:04;;;;;;;15.60;12.15;;;;;;;17.21;100.00;101348.59;5231273;28;20533;-67
2022/09/12 10:03:39;;;;;;;14.00;11.75;;;;;;;17.24;100.00;101342.91;5226166;28;20025;-68
2022/09/12 10:06:19;;;;;;;12.38;10.68;;;;;;;17.46;100.00;101344.34;5223090;28;20034;-67
2022/09/12 10:09:03;;;;;;;15.23;11.85;;;;;;;17.42;100.00;101343.78;5230513;28;20033;-67
2022/09/12 10:11:35;;;;;;;12.57;10.77;;;;;;;17.40;100.00;101334.16;5227053;28;20038;-67
2022/09/12 10:14:27;;;;;;;13.05;10.93;;;;;;;17.75;100.00;101324.44;5226380;28;20097;-67
2022/09/12 10:16:58;;;;;;;14.40;10.68;;;;;;;17.74;100.00;101326.28;5229743;28;20033;-67
2022/09/12 10:19:35;;;;;;;13.45;9.75;;;;;;;17.93;100.00;101324.47;5228600;28;20080;-67
2022/09/12 10:22:16;;;;;;;12.82;10.00;;;;;;;18.01;100.00;101325.41;5232018;28;20017;-67
2022/09/12 10:24:53;;;;;;;12.95;9.65;;;;;;;18.06;100.00;101314.13;5229771;28;20466;-67
2022/09/12 10:27:29;;;;;;;13.25;10.02;;;;;;;18.05;100.00;101317.84;5224746;28;20497;-68
2022/09/12 10:30:27;;;;;;;11.20;9.18;;;;;;;18.27;100.00;101310.25;5219170;28;20029;-68
2022/09/12 10:33:10;;;;;;;11.70;9.40;;;;;;;18.33;100.00;101306.94;5226250;28;20088;-67
2022/09/12 10:35:46;;;;;;;10.57;7.80;;;;;;;18.28;100.00;101306.56;5229230;28;20032;-67
2022/09/12 10:38:26;;;;;;;12.02;8.43;;;;;;;18.33;100.00;101305.09;5231086;28;20029;-67
2022/09/12 10:41:07;;;;;;;11.05;8.43;;;;;;;18.39;100.00;101301.75;5234497;28;20057;-67
2022/09/12 10:43:40;;;;;;;10.65;9.27;;;;;;;18.33;100.00;101294.28;5229242;28;20290;-68
2022/09/12 10:46:14;;;;;;;9.93;7.83;;;;;;;18.49;100.00;101284.59;5230159;28;20037;-68
2022/09/12 10:48:47;;;;;;;10.63;7.85;;;;;;;18.50;100.00;101289.84;5218535;28;20112;-67
2022/09/12 10:51:24;;;;;;;7.65;6.13;;;;;;;18.71;100.00;101284.06;5226077;28;20730;-67
2022/09/12 10:54:02;;;;;;;7.45;5.60;;;;;;;18.75;100.00;101279.19;5224644;28;20055;-67
2022/09/12 10:56:36;;;;;;;7.22;5.93;;;;;;;18.66;100.00;101285.53;5230157;28;20029;-67
2022/09/12 10:59:34;;;;;;;8.68;6.68;;;;;;;18.70;100.00;101273.44;5229210;28;20491;-68
2022/09/12 11:02:27;;;;;;;7.22;6.07;;;;;;;18.89;100.00;101275.06;5228775;28;20020;-68
2022/09/12 11:05:20;;;;;;;8.55;6.03;;;;;;;18.83;100.00;101273.00;5230585;28;20124;-68
2022/09/12 11:08:13;;;;;;;6.82;5.25;;;;;;;19.04;100.00;101264.47;5225411;28;20064;-67
2022/09/12 11:10:56;;;;;;;5.10;4.60;;;;;;;19.14;100.00;101266.06;5219432;28;20155;-67
2022/09/12 11:13:50;;;;;;;6.85;4.57;;;;;;;19.33;100.00;101264.94;5224359;28;20044;-67
2022/09/12 11:16:59;;;;;;;5.32;4.03;;;;;;;19.26;100.00;101272.00;5225525;28;20029;-67
2022/09/12 11:20:20;;;;;;;5.45;3.92;;;;;;;19.42;100.00;101265.78;5228416;28;20039;-67
2022/09/12 11:23:33;;;;;;;5.97;4.18;;;;;;;19.47;100.00;101254.50;5225731;28;20223;-67
2022/09/12 11:26:33;;;;;;;6.50;4.78;;;;;;;19.52;100.00;101254.81;5276971;28;20028;-67
2022/09/12 11:29:28;;;;;;;5.25;4.32;;;;;;;19.79;100.00;101253.72;5260046;28;20096;-67
2022/09/12 11:32:17;;;;;;;7.57;4.30;;;;;;;19.59;100.00;101250.44;5233119;28;20037;-67
2022/09/12 11:35:25;;;;;;;5.45;4.07;;;;;;;19.75;100.00;101246.94;5226837;28;20034;-67
2022/09/12 11:38:27;;;;;;;4.72;3.50;;;;;;;19.85;100.00;101244.06;5221545;28;20041;-67
2022/09/12 11:41:06;;;;;;;5.18;3.70;;;;;;;19.95;100.00;101242.88;5227635;28;20041;-67
2022/09/12 11:43:40;;;;;;;4.25;3.22;;;;;;;20.06;100.00;101251.69;5227492;28;20037;-67
2022/09/12 11:46:23;;;;;;;4.22;2.83;;;;;;;20.09;100.00;101252.19;5228187;28;20029;-67
2022/09/12 11:49:12;;;;;;;3.28;2.38;;;;;;;20.29;100.00;101257.28;5226412;28;20029;-67
2022/09/12 11:52:09;;;;;;;5.00;3.00;;;;;;;20.19;100.00;101252.00;5225614;28;20029;-68
2022/09/12 11:55:00;;;;;;;3.85;2.60;;;;;;;20.36;100.00;101259.13;5225508;28;20042;-67
2022/09/12 11:57:46;;;;;;;4.28;2.92;;;;;;;20.28;100.00;101264.53;5230573;28;20112;-67
2022/09/12 12:00:26;;;;;;;5.63;3.20;;;;;;;20.43;100.00;101258.44;5227221;28;20045;-68